createdAt,value
2022-09-30T00:01:29.308Z,100.00
2022-09-30T00:03:57.296Z,100.00
2022-09-30T00:06:27.540Z,100.00
2022-09-30T00:08:54.737Z,100.00
2022-09-30T00:11:25.867Z,100.00
2022-09-30T00:13:55.823Z,100.00
2022-09-30T00:16:24.824Z,100.00
2022-09-30T00:18:56.447Z,100.00
2022-09-30T00:21:24.485Z,100.00
2022-09-30T00:23:51.929Z,100.00
2022-09-30T00:26:22.179Z,100.00
2022-09-30T00:28:54.834Z,100.00
2022-09-30T00:31:22.806Z,100.00
2022-09-30T00:34:07.362Z,100.00
2022-09-30T00:36:50.088Z,100.00
2022-09-30T00:39:23.872Z,100.00
2022-09-30T00:41:54.208Z,100.00
2022-09-30T00:44:53.631Z,100.00
2022-09-30T00:47:42.513Z,100.00
2022-09-30T00:50:15.443Z,100.00
2022-09-30T00:52:48.485Z,100.00
2022-09-30T00:55:27.964Z,100.00
2022-09-30T00:57:56.428Z,100.00
2022-09-30T01:00:23.120Z,100.00
2022-09-30T01:02:50.140Z,100.00
2022-09-30T01:05:20.549Z,100.00
2022-09-30T01:07:48.063Z,100.00
2022-09-30T01:10:14.966Z,100.00
2022-09-30T01:12:41.823Z,100.00
2022-09-30T01:15:09.737Z,100.00
2022-09-30T01:17:49.708Z,100.00
2022-09-30T01:20:52.148Z,100.00
2022-09-30T01:23:53.298Z,100.00
2022-09-30T01:27:00.855Z,100.00
2022-09-30T01:29:52.792Z,100.00
2022-09-30T01:32:45.743Z,100.00
2022-09-30T01:35:24.639Z,100.00
2022-09-30T01:38:16.124Z,100.00
2022-09-30T01:40:51.757Z,100.00
2022-09-30T01:43:37.979Z,100.00
2022-09-30T01:46:32.762Z,100.00
2022-09-30T01:49:22.085Z,100.00
2022-09-30T01:52:12.126Z,100.00
2022-09-30T01:54:48.090Z,100.00
2022-09-30T01:57:23.621Z,100.00
2022-09-30T02:00:03.908Z,100.00
2022-09-30T02:02:34.259Z,100.00
2022-09-30T02:05:14.130Z,100.00
2022-09-30T02:07:45.718Z,100.00
2022-09-30T02:10:19.724Z,100.00
2022-09-30T02:12:52.261Z,100.00
2022-09-30T02:15:26.793Z,100.00
2022-09-30T02:17:58.655Z,100.00
2022-09-30T02:20:28.478Z,100.00
2022-09-30T02:23:26.117Z,100.00
2022-09-30T02:26:06.187Z,100.00
2022-09-30T02:28:34.995Z,100.00
2022-09-30T02:31:04.945Z,100.00
2022-09-30T02:33:37.495Z,100.00
2022-09-30T02:36:38.084Z,100.00
2022-09-30T02:39:33.034Z,100.00
2022-09-30T02:42:11.857Z,100.00
2022-09-30T02:44:39.016Z,100.00
2022-09-30T02:47:31.637Z,100.00
2022-09-30T02:50:23.779Z,100.00
2022-09-30T02:53:22.471Z,100.00
2022-09-30T02:56:33.736Z,100.00
2022-09-30T02:59:00.704Z,100.00
2022-09-30T03:01:27.364Z,100.00
2022-09-30T03:04:02.638Z,100.00
2022-09-30T03:06:29.656Z,100.00
2022-09-30T03:08:56.756Z,100.00
2022-09-30T03:11:26.623Z,100.00
2022-09-30T03:14:19.459Z,100.00
2022-09-30T03:17:10.114Z,100.00
2022-09-30T03:19:45.887Z,100.00
2022-09-30T03:22:59.452Z,100.00
2022-09-30T03:25:46.467Z,100.00
2022-09-30T03:28:28.197Z,100.00
2022-09-30T03:31:12.369Z,100.00
2022-09-30T03:34:02.531Z,100.00
2022-09-30T03:36:37.991Z,100.00
2022-09-30T03:39:31.232Z,100.00
2022-09-30T03:42:24.198Z,100.00
2022-09-30T03:45:17.815Z,100.00
2022-09-30T03:47:48.799Z,100.00
2022-09-30T03:50:20.828Z,100.00
2022-09-30T03:52:49.823Z,100.00
2022-09-30T03:55:19.982Z,100.00
2022-09-30T03:57:46.758Z,100.00
2022-09-30T04:00:13.655Z,100.00
2022-09-30T04:02:40.494Z,100.00
2022-09-30T04:05:08.651Z,100.00
2022-09-30T04:07:36.175Z,100.00
2022-09-30T04:10:02.941Z,100.00
2022-09-30T04:12:29.868Z,100.00
2022-09-30T04:14:57.881Z,100.00
2022-09-30T04:17:26.148Z,100.00
2022-09-30T04:19:52.737Z,100.00
2022-09-30T04:22:23.116Z,100.00
2022-09-30T04:24:52.262Z,100.00
2022-09-30T04:27:19.528Z,100.00
2022-09-30T04:29:46.192Z,100.00
2022-09-30T04:32:12.837Z,100.00
2022-09-30T04:34:39.627Z,100.00
2022-09-30T04:37:10.575Z,100.00
2022-09-30T04:39:37.590Z,100.00
2022-09-30T04:42:04.834Z,100.00
2022-09-30T04:44:31.550Z,100.00
2022-09-30T04:46:58.347Z,100.00
2022-09-30T04:49:25.152Z,100.00
2022-09-30T04:51:51.937Z,100.00
2022-09-30T04:54:19.188Z,100.00
2022-09-30T04:56:46.166Z,100.00
2022-09-30T04:59:13.244Z,100.00
2022-09-30T05:01:42.646Z,100.00
2022-09-30T05:04:09.709Z,100.00
2022-09-30T05:06:36.894Z,100.00
2022-09-30T05:09:04.771Z,100.00
2022-09-30T05:11:31.805Z,100.00
2022-09-30T05:13:58.384Z,100.00
2022-09-30T05:16:28.233Z,100.00
2022-09-30T05:18:54.978Z,100.00
2022-09-30T05:21:21.534Z,100.00
2022-09-30T05:23:48.481Z,100.00
2022-09-30T05:26:16.061Z,100.00
2022-09-30T05:28:43.381Z,100.00
2022-09-30T05:31:12.551Z,100.00
2022-09-30T05:33:39.756Z,100.00
2022-09-30T05:36:08.404Z,100.00
2022-09-30T05:38:36.436Z,100.00
2022-09-30T05:41:13.359Z,100.00
2022-09-30T05:43:41.643Z,100.00
2022-09-30T05:46:08.403Z,100.00
2022-09-30T05:48:35.285Z,100.00
2022-09-30T05:51:02.348Z,100.00
2022-09-30T05:53:32.310Z,100.00
2022-09-30T05:55:59.696Z,100.00
2022-09-30T05:58:27.771Z,100.00
2022-09-30T06:00:54.489Z,100.00
2022-09-30T06:03:21.091Z,100.00
2022-09-30T06:05:48.092Z,100.00
2022-09-30T06:08:15.022Z,100.00
2022-09-30T06:10:43.571Z,100.00
2022-09-30T06:13:11.320Z,100.00
2022-09-30T06:15:41.453Z,100.00
2022-09-30T06:18:08.973Z,100.00
2022-09-30T06:20:37.250Z,100.00
2022-09-30T06:23:04.382Z,100.00
2022-09-30T06:25:32.110Z,100.00
2022-09-30T06:27:59.164Z,100.00
2022-09-30T06:30:25.950Z,100.00
2022-09-30T06:32:54.213Z,100.00
2022-09-30T06:35:22.122Z,100.00
2022-09-30T06:37:51.762Z,100.00
2022-09-30T06:40:21.398Z,100.00
2022-09-30T06:42:49.791Z,100.00
2022-09-30T06:45:29.683Z,100.00
2022-09-30T06:48:00.868Z,100.00
2022-09-30T06:50:28.509Z,100.00
2022-09-30T06:53:06.448Z,100.00
2022-09-30T06:55:36.635Z,100.00
2022-09-30T06:58:03.374Z,100.00
2022-09-30T07:00:30.374Z,100.00
2022-09-30T07:02:57.435Z,100.00
2022-09-30T07:05:27.892Z,100.00
2022-09-30T07:07:54.755Z,100.00
2022-09-30T07:10:21.507Z,100.00
2022-09-30T07:12:52.415Z,100.00
2022-09-30T07:15:22.341Z,100.00
2022-09-30T07:17:59.358Z,100.00
2022-09-30T07:20:26.124Z,100.00
2022-09-30T07:22:52.935Z,99.85
2022-09-30T07:25:21.132Z,100.00
2022-09-30T07:27:48.572Z,100.00
2022-09-30T07:30:24.566Z,100.00
2022-09-30T07:32:53.629Z,100.00
2022-09-30T07:35:20.279Z,100.00
2022-09-30T07:37:46.879Z,100.00
2022-09-30T07:40:13.652Z,99.31
2022-09-30T07:42:46.093Z,100.00
2022-09-30T07:45:17.269Z,99.04
2022-09-30T07:47:44.253Z,99.08
2022-09-30T07:50:13.421Z,99.54
2022-09-30T07:52:42.426Z,99.59
2022-09-30T07:55:09.125Z,98.98
2022-09-30T07:57:35.802Z,98.36
2022-09-30T08:00:17.346Z,98.02
2022-09-30T08:02:49.203Z,97.61
2022-09-30T08:05:15.852Z,97.48
2022-09-30T08:07:42.447Z,97.64
2022-09-30T08:10:09.786Z,98.21
2022-09-30T08:12:37.595Z,98.94
2022-09-30T08:15:06.197Z,94.93
2022-09-30T08:17:33.106Z,92.62
2022-09-30T08:19:59.820Z,87.23
2022-09-30T08:22:26.568Z,87.07
2022-09-30T08:24:53.710Z,87.07
2022-09-30T08:27:20.818Z,86.20
2022-09-30T08:29:55.253Z,85.86
2022-09-30T08:32:23.280Z,90.12
2022-09-30T08:34:49.826Z,95.54
2022-09-30T08:37:16.396Z,96.23
2022-09-30T08:39:43.776Z,95.82
2022-09-30T08:42:37.937Z,96.94
2022-09-30T08:45:38.124Z,94.54
2022-09-30T08:50:51.565Z,89.17
2022-09-30T08:53:27.218Z,89.28
2022-09-30T08:55:58.143Z,88.66
2022-09-30T08:58:34.123Z,88.00
2022-09-30T09:01:27.625Z,85.96
2022-09-30T09:03:54.668Z,85.35
2022-09-30T09:06:33.932Z,81.39
2022-09-30T09:09:19.357Z,81.10
2022-09-30T09:12:01.645Z,80.68
2022-09-30T09:14:40.443Z,80.55
2022-09-30T09:17:16.406Z,76.90
2022-09-30T09:20:07.690Z,78.21
2022-09-30T09:22:35.707Z,77.19
2022-09-30T09:25:04.890Z,71.97
2022-09-30T09:27:55.178Z,74.18
2022-09-30T09:30:26.357Z,73.94
2022-09-30T09:32:57.261Z,73.90
2022-09-30T09:35:48.961Z,73.23
2022-09-30T09:38:25.230Z,73.45
2022-09-30T09:40:57.965Z,72.38
2022-09-30T09:43:42.435Z,75.39
2022-09-30T09:46:34.718Z,73.14
2022-09-30T09:49:13.691Z,72.11
2022-09-30T09:51:47.339Z,70.69
2022-09-30T09:54:19.088Z,72.59
2022-09-30T09:56:45.636Z,68.65
2022-09-30T09:59:19.340Z,72.14
2022-09-30T10:01:53.754Z,71.05
2022-09-30T10:04:27.058Z,68.65
2022-09-30T10:07:12.177Z,68.43
2022-09-30T10:09:43.142Z,69.43
2022-09-30T10:12:09.771Z,64.56
2022-09-30T10:14:48.610Z,65.82
2022-09-30T10:17:35.981Z,65.47
2022-09-30T10:20:23.283Z,64.20
2022-09-30T10:23:01.256Z,64.70
2022-09-30T10:25:28.233Z,67.28
2022-09-30T10:28:00.409Z,67.29
2022-09-30T10:30:43.214Z,66.26
2022-09-30T10:33:21.681Z,66.37
2022-09-30T10:35:54.184Z,67.96
2022-09-30T10:38:23.186Z,64.20
2022-09-30T10:40:52.327Z,63.31
2022-09-30T10:43:23.888Z,65.35
2022-09-30T10:46:13.837Z,63.22
2022-09-30T10:48:41.465Z,64.25
2022-09-30T10:51:31.835Z,64.47
2022-09-30T10:53:59.332Z,63.89
2022-09-30T10:56:52.608Z,63.50
2022-09-30T10:59:32.107Z,64.04
2022-09-30T11:02:31.128Z,64.96
2022-09-30T11:05:18.732Z,64.53
2022-09-30T11:07:52.655Z,66.19
2022-09-30T11:10:57.333Z,67.33
2022-09-30T11:13:29.359Z,67.88
2022-09-30T11:16:39.299Z,68.36
2022-09-30T11:19:11.671Z,69.83
2022-09-30T11:21:55.579Z,68.88
2022-09-30T11:24:43.967Z,68.51
2022-09-30T11:27:32.170Z,69.33
2022-09-30T11:30:01.618Z,70.64
2022-09-30T11:32:56.265Z,69.77
2022-09-30T11:35:34.105Z,70.72
2022-09-30T11:38:06.889Z,68.99
2022-09-30T11:41:05.047Z,70.31
2022-09-30T11:43:39.755Z,65.44
2022-09-30T11:46:30.257Z,67.39
2022-09-30T11:49:06.810Z,65.15
2022-09-30T11:51:49.708Z,65.80
2022-09-30T11:54:24.414Z,65.65
2022-09-30T11:57:09.951Z,65.77
2022-09-30T11:59:44.565Z,66.81
2022-09-30T12:02:26.216Z,64.67
2022-09-30T12:04:58.347Z,65.51
2022-09-30T12:07:47.613Z,61.52
2022-09-30T12:10:21.574Z,59.18
2022-09-30T12:12:55.727Z,57.78
2022-09-30T12:15:27.279Z,60.55
2022-09-30T12:18:12.508Z,62.22
2022-09-30T12:20:47.134Z,59.78
2022-09-30T12:23:46.585Z,59.56
2022-09-30T12:26:15.536Z,57.35
2022-09-30T12:29:16.393Z,58.68
2022-09-30T12:31:43.066Z,58.62
2022-09-30T12:34:52.183Z,58.42
2022-09-30T12:37:37.329Z,55.38
2022-09-30T12:40:24.344Z,53.64
2022-09-30T12:43:03.379Z,54.10
2022-09-30T12:45:48.998Z,52.62
2022-09-30T12:48:21.357Z,52.11
2022-09-30T12:50:55.151Z,54.01
2022-09-30T12:53:28.256Z,53.41
2022-09-30T12:56:03.713Z,54.04
2022-09-30T12:58:58.162Z,56.26
2022-09-30T13:01:28.716Z,58.83
2022-09-30T13:04:01.416Z,57.72
2022-09-30T13:06:50.818Z,54.74
2022-09-30T13:09:17.663Z,54.10
2022-09-30T13:11:44.469Z,55.86
2022-09-30T13:14:35.697Z,54.36
2022-09-30T13:17:08.597Z,51.47
2022-09-30T13:19:41.160Z,53.12
2022-09-30T13:22:29.992Z,52.27
2022-09-30T13:25:05.817Z,54.43
2022-09-30T13:27:41.857Z,54.53
2022-09-30T13:30:08.624Z,52.69
2022-09-30T13:32:37.813Z,54.85
2022-09-30T13:35:43.461Z,55.46
2022-09-30T13:38:13.092Z,53.23
2022-09-30T13:41:19.448Z,54.73
2022-09-30T13:44:17.049Z,53.46
2022-09-30T13:46:51.861Z,51.93
2022-09-30T13:49:41.752Z,52.77
2022-09-30T13:52:19.565Z,52.43
2022-09-30T13:54:48.458Z,50.99
2022-09-30T13:57:26.104Z,54.39
2022-09-30T14:00:04.986Z,53.03
2022-09-30T14:02:43.485Z,51.43
2022-09-30T14:05:29.223Z,53.86
2022-09-30T14:08:14.009Z,51.14
2022-09-30T14:10:57.530Z,52.18
2022-09-30T14:13:32.514Z,50.60
2022-09-30T14:16:18.492Z,50.26
2022-09-30T14:19:06.681Z,51.77
2022-09-30T14:21:45.098Z,51.24
2022-09-30T14:24:17.713Z,49.85
2022-09-30T14:27:21.788Z,51.71
2022-09-30T14:30:01.655Z,53.55
2022-09-30T14:32:43.512Z,53.64
2022-09-30T14:35:17.132Z,53.23
2022-09-30T14:37:48.746Z,52.94
2022-09-30T14:40:24.119Z,52.53
2022-09-30T14:42:51.955Z,51.39
2022-09-30T14:45:26.876Z,51.25
2022-09-30T14:47:58.207Z,50.70
2022-09-30T14:50:28.642Z,52.39
2022-09-30T14:52:58.695Z,53.05
2022-09-30T14:55:30.708Z,52.14
2022-09-30T14:58:31.224Z,52.45
2022-09-30T15:01:13.038Z,51.17
2022-09-30T15:03:43.266Z,53.92
2022-09-30T15:06:31.142Z,52.35
2022-09-30T15:09:05.339Z,52.67
2022-09-30T15:11:39.363Z,54.13
2022-09-30T15:14:15.481Z,54.40
2022-09-30T15:16:53.656Z,52.15
2022-09-30T15:19:26.158Z,51.99
2022-09-30T15:22:02.083Z,52.52
2022-09-30T15:24:33.145Z,54.00
2022-09-30T15:27:04.122Z,55.65
2022-09-30T15:29:30.971Z,53.59
2022-09-30T15:32:22.357Z,54.73
2022-09-30T15:34:53.111Z,55.28
2022-09-30T15:37:38.888Z,54.60
2022-09-30T15:40:34.176Z,55.65
2022-09-30T15:43:06.453Z,54.93
2022-09-30T15:45:39.495Z,57.68
2022-09-30T15:48:07.619Z,57.47
2022-09-30T15:50:52.854Z,58.89
2022-09-30T15:53:25.689Z,60.26
2022-09-30T15:55:53.457Z,59.34
2022-09-30T15:58:38.040Z,58.77
2022-09-30T16:01:21.702Z,59.99
2022-09-30T16:03:54.894Z,59.95
2022-09-30T16:06:28.781Z,59.77
2022-09-30T16:09:03.242Z,60.19
2022-09-30T16:11:40.919Z,61.21
2022-09-30T16:14:32.509Z,62.21
2022-09-30T16:17:02.535Z,62.44
2022-09-30T16:19:32.686Z,63.67
2022-09-30T16:22:00.231Z,64.09
2022-09-30T16:24:30.854Z,64.13
2022-09-30T16:27:01.266Z,64.72
2022-09-30T16:29:29.215Z,65.18
2022-09-30T16:31:56.893Z,65.14
2022-09-30T16:34:29.759Z,66.52
2022-09-30T16:37:10.907Z,67.95
2022-09-30T16:39:37.762Z,67.33
2022-09-30T16:42:04.621Z,68.07
2022-09-30T16:44:35.982Z,66.71
2022-09-30T16:47:03.132Z,68.37
2022-09-30T16:49:29.701Z,68.71
2022-09-30T16:51:56.252Z,69.75
2022-09-30T16:54:22.846Z,69.03
2022-09-30T16:56:49.568Z,69.81
2022-09-30T16:59:17.768Z,70.29
2022-09-30T17:01:44.718Z,71.25
2022-09-30T17:04:14.160Z,71.93
2022-09-30T17:06:44.612Z,72.33
2022-09-30T17:09:11.245Z,72.96
2022-09-30T17:11:38.314Z,73.60
2022-09-30T17:14:06.667Z,73.82
2022-09-30T17:16:34.202Z,74.77
2022-09-30T17:19:01.041Z,75.85
2022-09-30T17:21:28.097Z,75.93
2022-09-30T17:23:55.291Z,77.12
2022-09-30T17:26:22.498Z,77.40
2022-09-30T17:28:49.263Z,77.77
2022-09-30T17:31:16.076Z,78.24
2022-09-30T17:33:43.083Z,78.06
2022-09-30T17:36:12.356Z,78.47
2022-09-30T17:38:39.777Z,78.56
2022-09-30T17:41:25.379Z,79.42
2022-09-30T17:43:51.987Z,79.50
2022-09-30T17:46:23.522Z,79.69
2022-09-30T17:48:54.493Z,80.74
2022-09-30T17:51:21.424Z,80.43
2022-09-30T17:53:49.262Z,81.06
2022-09-30T17:56:20.385Z,80.96
2022-09-30T17:58:50.710Z,81.59
2022-09-30T18:01:20.749Z,82.17
2022-09-30T18:03:48.121Z,82.69
2022-09-30T18:06:14.899Z,82.57
2022-09-30T18:08:41.836Z,84.09
2022-09-30T18:11:10.242Z,83.42
2022-09-30T18:13:38.138Z,83.89
2022-09-30T18:16:08.522Z,84.74
2022-09-30T18:18:36.021Z,84.52
2022-09-30T18:21:02.801Z,84.23
2022-09-30T18:23:29.777Z,84.18
2022-09-30T18:25:58.064Z,84.47
2022-09-30T18:28:25.450Z,83.94
2022-09-30T18:30:52.496Z,83.85
2022-09-30T18:33:21.642Z,85.01
2022-09-30T18:35:51.202Z,84.48
2022-09-30T18:38:18.764Z,83.94
2022-09-30T18:40:45.882Z,83.63
2022-09-30T18:43:14.641Z,84.08
2022-09-30T18:45:43.907Z,83.71
2022-09-30T18:48:11.223Z,83.59
2022-09-30T18:50:38.910Z,83.53
2022-09-30T18:53:10.051Z,83.36
2022-09-30T18:55:40.159Z,83.33
2022-09-30T18:58:07.132Z,83.70
2022-09-30T19:00:33.838Z,82.75
2022-09-30T19:03:01.193Z,83.54
2022-09-30T19:05:28.185Z,83.76
2022-09-30T19:07:55.926Z,84.12
2022-09-30T19:10:24.624Z,84.15
2022-09-30T19:12:52.466Z,84.60
2022-09-30T19:15:19.720Z,84.60
2022-09-30T19:17:46.763Z,84.65
2022-09-30T19:20:15.487Z,84.31
2022-09-30T19:22:42.554Z,85.60
2022-09-30T19:25:11.933Z,85.19
2022-09-30T19:27:41.066Z,85.04
2022-09-30T19:30:09.855Z,85.48
2022-09-30T19:32:36.748Z,85.19
2022-09-30T19:35:10.418Z,85.00
2022-09-30T19:37:37.859Z,85.02
2022-09-30T19:40:19.842Z,85.69
2022-09-30T19:42:48.584Z,85.37
2022-09-30T19:45:16.414Z,86.09
2022-09-30T19:47:43.360Z,86.60
2022-09-30T19:50:10.420Z,86.15
2022-09-30T19:52:45.082Z,87.26
2022-09-30T19:55:16.945Z,87.28
2022-09-30T19:57:43.919Z,86.53
2022-09-30T20:00:13.012Z,87.63
2022-09-30T20:02:39.841Z,87.96
2022-09-30T20:05:07.419Z,87.31
2022-09-30T20:07:35.266Z,87.94
2022-09-30T20:10:03.718Z,87.81
2022-09-30T20:12:30.456Z,87.97
2022-09-30T20:15:15.924Z,87.24
2022-09-30T20:17:43.593Z,87.23
2022-09-30T20:20:29.001Z,87.41
2022-09-30T20:22:57.215Z,87.64
2022-09-30T20:25:23.838Z,87.77
2022-09-30T20:27:52.667Z,87.44
2022-09-30T20:30:20.839Z,88.12
2022-09-30T20:32:47.535Z,88.20
2022-09-30T20:35:14.283Z,88.04
2022-09-30T20:37:42.340Z,87.81
2022-09-30T20:40:09.975Z,87.72
2022-09-30T20:42:38.829Z,87.69
2022-09-30T20:45:10.763Z,87.89
2022-09-30T20:47:38.790Z,87.61
2022-09-30T20:50:07.667Z,88.08
2022-09-30T20:52:34.472Z,88.52
2022-09-30T20:55:01.237Z,87.51
2022-09-30T20:57:32.277Z,87.25
2022-09-30T21:00:00.399Z,88.05
2022-09-30T21:02:28.349Z,87.61
2022-09-30T21:04:58.146Z,87.75
2022-09-30T21:07:26.309Z,87.34
2022-09-30T21:09:53.245Z,87.64
2022-09-30T21:12:20.030Z,87.05
2022-09-30T21:14:46.811Z,87.19
2022-09-30T21:17:13.431Z,88.21
2022-09-30T21:19:40.393Z,88.85
2022-09-30T21:22:07.744Z,88.17
2022-09-30T21:24:34.438Z,88.03
2022-09-30T21:27:01.813Z,88.84
2022-09-30T21:29:30.676Z,89.13
2022-09-30T21:31:57.553Z,88.96
2022-09-30T21:34:24.685Z,88.36
2022-09-30T21:36:51.618Z,89.02
2022-09-30T21:39:18.374Z,89.17
2022-09-30T21:41:46.221Z,88.33
2022-09-30T21:44:14.047Z,89.11
2022-09-30T21:46:44.707Z,89.24
2022-09-30T21:49:21.652Z,88.24
2022-09-30T21:51:48.466Z,88.56
2022-09-30T21:54:15.395Z,88.52
2022-09-30T21:56:43.155Z,88.29
2022-09-30T21:59:10.787Z,88.61
2022-09-30T22:01:37.601Z,88.00
2022-09-30T22:04:05.392Z,87.84
2022-09-30T22:06:32.325Z,88.22
2022-09-30T22:09:01.998Z,88.02
2022-09-30T22:11:30.788Z,88.09
2022-09-30T22:13:59.386Z,88.33
2022-09-30T22:16:29.999Z,87.54
2022-09-30T22:19:02.516Z,88.16
2022-09-30T22:21:32.285Z,87.87
2022-09-30T22:24:04.835Z,87.73
2022-09-30T22:26:33.063Z,87.46
2022-09-30T22:29:03.114Z,87.55
2022-09-30T22:31:32.244Z,88.75
2022-09-30T22:34:21.656Z,87.92
2022-09-30T22:37:07.399Z,87.89
2022-09-30T22:39:34.477Z,88.09
2022-09-30T22:42:01.753Z,87.83
2022-09-30T22:44:35.009Z,87.80
2022-09-30T22:47:02.415Z,87.82
2022-09-30T22:49:33.243Z,87.53
2022-09-30T22:52:01.176Z,87.92
2022-09-30T22:54:29.167Z,87.84
2022-09-30T22:56:56.398Z,87.42
2022-09-30T22:59:24.120Z,88.20
2022-09-30T23:01:51.358Z,87.57
2022-09-30T23:04:18.937Z,87.42
2022-09-30T23:06:52.882Z,87.27
2022-09-30T23:09:20.893Z,87.74
2022-09-30T23:11:48.887Z,87.08
2022-09-30T23:14:16.893Z,86.35
2022-09-30T23:16:43.635Z,86.48
2022-09-30T23:19:10.404Z,86.27
2022-09-30T23:21:38.590Z,86.31
2022-09-30T23:24:05.627Z,86.50
2022-09-30T23:26:32.404Z,85.99
2022-09-30T23:29:01.410Z,85.87
2022-09-30T23:31:28.457Z,85.73
2022-09-30T23:33:57.608Z,86.28
2022-09-30T23:36:29.382Z,85.77
2022-09-30T23:39:02.107Z,85.78
2022-09-30T23:41:29.884Z,85.32
2022-09-30T23:43:56.780Z,85.13
2022-09-30T23:46:23.977Z,85.20
2022-09-30T23:48:50.716Z,84.88
2022-09-30T23:51:19.408Z,85.07
2022-09-30T23:53:46.266Z,84.36
2022-09-30T23:56:15.613Z,83.91
2022-09-30T23:58:43.820Z,84.66
